Latest Weather Observations for Holsworthy

IDN60901

Issued at 4:21 am EDT Wednesday 17 January 2018 (issued every 10 minutes, with the page automatically refreshed every 10 minutes)

About weather observations | Map of Sydney area stations | Latest observations for Sydney area | Other Formats
Station Details ID: 066161 Name: HOLSWORTHY AERODROME AWS Lat: -33.99 Lon: 150.95 Height: 68.16 m
Data from the previous 72 hours. | See also: Recent months at Holsworthy
Date/Time
EDT
Temp
°C
App
Temp
°C
Dew
Point
°C
Rel
Hum
%
Delta-T
°C
Wind Press
QNH
hPa
Press
MSL
hPa
Rain since
9am
mm
Dir  Spd
km/h
Gust
km/h
Spd
kts
Gust
kts
17/04:00am 16.2 15.2 10.9 71 2.8 SW 7 9 4 5 1018.1 1017.8 0.0
17/03:30am 16.0 15.1 11.2 73 2.6 WSW 7 9 4 5 1018.1 1017.8 0.0
17/03:00am 16.1 15.1 11.1 72 2.7 WSW 7 9 4 5 1018.5 1018.2 0.0
17/02:30am 16.2 16.6 11.4 73 2.6 CALM 0 0 0 0 1018.9 1018.6 0.0
17/02:00am 16.1 15.3 11.1 72 2.7 WSW 6 7 3 4 1019.2 1018.9 0.0
17/01:30am 16.3 15.3 11.0 71 2.8 WSW 7 11 4 6 1019.6 1019.3 0.0
17/01:00am 16.2 15.3 11.2 72 2.7 SSW 7 11 4 6 1019.8 1019.5 0.0
17/12:30am 15.5 14.5 10.9 74 2.5 WSW 7 11 4 6 1019.8 1019.5 0.0
17/12:00am 15.8 14.8 11.0 73 2.6 WSW 7 13 4 7 1020.2 1019.9 0.0
 
Date/Time
EDT
Temp
°C
App
Temp
°C
Dew
Point
°C
Rel
Hum
%
Delta-T
°C
Wind Press
QNH
hPa
Press
MSL
hPa
Rain since
9am
mm
Dir  Spd
km/h
Gust
km/h
Spd
kts
Gust
kts
16/11:30pm 15.9 14.5 10.9 72 2.7 WSW 9 11 5 6 1020.2 1019.9 0.0
16/11:00pm 16.1 15.0 10.8 71 2.8 WSW 7 9 4 5 1020.2 1019.9 0.0
16/10:30pm 16.9 15.5 11.0 68 3.2 SW 9 11 5 6 1020.2 1019.9 0.0
16/10:00pm 17.6 15.5 11.2 66 3.5 SSW 13 20 7 11 1020.2 1019.9 0.0
16/09:30pm 18.0 15.7 11.6 66 3.5 SSW 15 22 8 12 1020.0 1019.7 0.0
16/09:00pm 18.3 15.6 11.6 65 3.7 S 17 30 9 16 1019.9 1019.6 0.0
16/08:30pm 18.6 15.5 11.7 64 3.8 S 19 26 10 14 1019.8 1019.5 0.0
16/08:00pm 19.0 14.6 11.6 62 4.1 SSE 26 37 14 20 1019.6 1019.3 0.0
16/07:30pm 19.5 15.0 11.3 59 4.5 SSE 26 41 14 22 1019.2 1018.9 0.0
16/07:00pm 20.2 15.6 11.1 56 5.0 SSE 26 41 14 22 1019.1 1018.8 0.0
16/06:30pm 20.7 16.6 11.3 55 5.2 SSE 24 35 13 19 1018.8 1018.5 0.0
16/06:00pm 21.2 17.0 11.0 52 5.6 SSE 24 39 13 21 1018.8 1018.5 0.0
16/05:44pm 21.2 16.2 11.0 52 5.6 SSE 28 46 15 25 1018.8 1018.5 0.0
16/05:30pm 20.9 15.7 10.4 51 5.7 S 28 39 15 21 1018.8 1018.5 0.0
16/05:06pm 21.8 16.6 10.3 48 6.3 S 28 46 15 25 1019.0 1018.7 0.0
16/05:00pm 21.5 16.2 9.7 47 6.4 SSE 28 41 15 22 1019.0 1018.7 0.0
16/04:30pm 22.5 16.9 10.3 46 6.7 SSE 30 44 16 24 1018.8 1018.5 0.0
16/04:00pm 22.1 17.5 9.6 45 6.7 SSE 24 41 13 22 1018.9 1018.6 0.0
16/03:30pm 22.1 16.6 9.3 44 6.9 SSE 28 39 15 21 1019.2 1018.9 0.0
16/03:00pm 21.9 16.9 9.4 45 6.7 S 26 46 14 25 1019.5 1019.2 0.0
16/02:30pm 21.2 15.9 9.8 48 6.2 SSE 28 43 15 23 1019.9 1019.6 0.0
16/02:00pm 21.9 16.4 9.1 44 6.8 S 28 43 15 23 1019.9 1019.6 0.0
16/01:30pm 21.7 16.6 10.5 49 6.1 S 28 46 15 25 1020.2 1019.9 0.0
16/01:14pm 20.7 14.9 9.6 49 6.0 S 30 48 16 26 1020.5 1020.2 0.0
16/01:00pm 20.7 15.7 9.6 49 5.9 S 26 39 14 21 1020.6 1020.3 0.0
16/12:30pm 20.5 15.5 9.7 50 5.8 S 26 41 14 22 1021.0 1020.7 0.0
16/12:00pm 21.4 15.8 10.3 49 6.0 SSE 30 48 16 26 1021.1 1020.8 0.0
16/11:57am 20.8 15.5 9.7 49 6.0 SSE 28 48 15 26 1021.1 1020.8 0.0
16/11:30am 21.3 16.4 8.6 44 6.7 S 24 37 13 20 1020.7 1020.4 0.0
16/11:00am 21.0 16.8 9.9 49 6.0 SW 22 41 12 22 1021.0 1020.7 0.0
16/10:30am 19.8 15.3 10.0 53 5.3 S 24 37 13 20 1021.0 1020.7 0.0
16/10:00am 20.9 16.9 8.9 46 6.3 SSW 20 32 11 17 1020.5 1020.2 0.0
16/09:30am 20.4 16.1 9.3 49 5.9 SSW 22 35 12 19 1020.7 1020.4 0.0
16/09:00am 19.9 15.9 8.9 49 5.8 SSW 20 28 11 15 1020.5 1020.2 0.0
16/08:30am 19.3 15.3 9.2 52 5.3 SSW 20 33 11 18 1020.3 1020.0 0.0
16/08:00am 18.8 15.8 9.3 54 5.0 SW 15 24 8 13 1019.8 1019.5 0.0
16/07:30am 18.1 15.2 9.7 58 4.4 SW 15 20 8 11 1019.6 1019.3 0.0
16/07:00am 17.2 14.6 9.4 60 4.1 SW 13 20 7 11 1019.0 1018.7 0.0
16/06:30am 17.2 14.5 9.1 59 4.2 SSW 13 22 7 12 1018.7 1018.4 0.0
16/06:00am 17.5 14.4 8.9 57 4.5 SW 15 20 8 11 1018.4 1018.1 0.0
16/05:30am 17.8 14.3 8.6 55 4.8 SSW 17 30 9 16 1018.1 1017.8 0.0
16/05:00am 18.4 13.2 8.7 53 5.0 SSW 26 48 14 26 1017.8 1017.5 0.0
16/04:30am 18.3 13.1 8.8 54 4.9 SSW 26 46 14 25 1017.8 1017.5 0.0
16/04:03am 18.3 12.3 8.8 54 4.9 SSW 30 52 16 28 1017.6 1017.3 0.0
16/04:00am 18.5 13.0 9.0 54 5.0 SSW 28 44 15 24 1017.5 1017.2 0.0
16/03:42am 18.5 13.0 9.3 55 4.8 SSW 28 46 15 25 1017.3 1017.0 0.0
16/03:30am 18.6 14.1 9.9 57 4.6 SSW 24 35 13 19 1017.2 1016.9 0.0
16/03:02am 18.8 13.6 10.4 58 4.5 S 28 50 15 27 1017.1 1016.8 0.0
16/03:00am 18.8 14.0 10.4 58 4.5 S 26 44 14 24 1017.2 1016.9 0.0
16/02:30am 19.1 14.1 10.9 59 4.5 S 28 54 15 29 1017.1 1016.8 0.0
16/02:01am 19.1 14.4 11.9 63 4.0 S 28 46 15 25 1017.2 1016.9 0.0
16/02:00am 19.2 14.9 12.0 63 4.0 S 26 46 14 25 1017.1 1016.8 0.0
16/01:30am 19.3 16.2 12.3 64 3.9 SSW 20 35 11 19 1017.3 1017.0 0.0
16/01:00am 19.3 16.1 11.8 62 4.1 SSW 20 35 11 19 1017.4 1017.1 0.0
16/12:30am 19.6 14.7 12.4 63 4.0 S 30 50 16 27 1017.4 1017.1 0.0
16/12:25am 19.7 15.2 12.5 63 4.1 S 28 50 15 27 1017.5 1017.2 0.0
16/12:00am 19.9 17.2 13.6 67 3.6 S 20 44 11 24 1017.4 1017.1 0.0
 
Date/Time
EDT
Temp
°C
App
Temp
°C
Dew
Point
°C
Rel
Hum
%
Delta-T
°C
Wind Press
QNH
hPa
Press
MSL
hPa
Rain since
9am
mm
Dir  Spd
km/h
Gust
km/h
Spd
kts
Gust
kts
15/11:30pm 19.7 17.5 13.4 67 3.6 S 17 26 9 14 1017.4 1017.1 0.0
15/11:00pm 20.1 17.7 12.6 62 4.2 SSW 17 28 9 15 1017.3 1017.0 0.0
15/10:30pm 19.8 18.1 12.6 63 4.1 SSW 13 22 7 12 1017.0 1016.7 0.0
15/10:00pm 20.1 17.3 12.6 62 4.2 SSW 19 39 10 21 1016.8 1016.5 0.0
15/09:30pm 20.4 18.1 13.1 63 4.2 S 17 26 9 14 1016.8 1016.5 0.0
15/09:00pm 20.5 17.5 13.7 65 3.9 S 22 33 12 18 1016.6 1016.3 0.0
15/08:37pm 20.8 16.1 13.3 62 4.3 S 30 48 16 26 1016.4 1016.1 0.0
15/08:30pm 20.8 16.6 13.5 63 4.2 S 28 44 15 24 1016.4 1016.1 0.0
15/08:10pm 21.0 16.9 13.9 64 4.1 S 28 54 15 29 1016.3 1016.0 0.0
15/08:00pm 21.4 18.3 14.6 65 4.0 S 24 37 13 20 1016.0 1015.7 0.0
15/07:30pm 21.7 17.2 13.9 61 4.5 SSE 30 54 16 29 1015.8 1015.5 0.0
15/07:00pm 22.3 18.1 13.6 58 5.0 SSE 28 46 15 25 1015.3 1015.0 0.0
15/06:30pm 23.2 18.7 13.9 56 5.4 SSE 30 50 16 27 1014.7 1014.3 0.0
15/06:06pm 23.9 19.6 13.2 51 6.2 SSE 28 46 15 25 1014.2 1013.9 0.0
15/06:00pm 23.5 18.2 12.5 50 6.3 SSE 32 46 17 25 1014.1 1013.8 0.0
15/05:30pm 23.7 19.3 13.0 51 6.2 SSE 28 48 15 26 1013.7 1013.4 0.0
15/05:09pm 24.8 19.9 12.4 46 7.1 SSE 30 48 16 26 1013.4 1013.1 0.0
15/05:00pm 24.4 19.0 12.7 48 6.8 SSE 33 46 18 25 1013.4 1013.1 0.0
15/04:30pm 23.8 18.5 12.4 48 6.5 SE 32 43 17 23 1013.5 1013.2 0.0
15/04:00pm 25.2 20.4 12.8 46 7.2 SSE 30 44 16 24 1013.6 1013.3 0.0
15/03:30pm 25.1 20.5 12.3 45 7.4 SSE 28 41 15 22 1013.5 1013.2 0.0
15/03:15pm 25.8 21.2 12.3 43 7.8 SE 28 48 15 26 1013.5 1013.2 0.0
15/03:00pm 26.2 21.9 10.8 38 8.7 S 24 35 13 19 1013.3 1013.0 0.0
15/02:30pm 25.4 20.0 8.0 33 9.3 S 26 46 14 25 1013.4 1013.1 0.0
15/02:00pm 25.7 20.3 8.2 33 9.4 S 26 39 14 21 1013.8 1013.5 0.0
15/01:30pm 24.6 19.6 8.1 35 8.8 SSW 24 41 13 22 1014.4 1014.0 0.0
15/01:16pm 24.3 19.3 7.9 35 8.7 SSW 24 46 13 25 1014.4 1014.0 0.0
15/01:00pm 23.4 19.1 7.9 37 8.2 S 20 37 11 20 1014.7 1014.3 0.0
15/12:30pm 23.6 19.2 8.8 39 8.0 SSW 22 37 12 20 1015.0 1014.6 0.0
15/12:00pm 22.9 18.8 8.6 40 7.6 SSW 20 35 11 19 1015.2 1014.9 0.0
15/11:30am 22.5 16.8 8.2 40 7.6 S 28 43 15 23 1015.3 1015.0 0.0
15/11:00am 22.0 17.6 6.7 37 7.8 S 19 30 10 16 1015.3 1015.0 0.0
15/10:30am 21.1 16.1 6.6 39 7.4 SSW 22 37 12 20 1015.5 1015.2 0.0
15/10:00am 20.4 14.5 7.4 43 6.7 SSW 28 44 15 24 1015.4 1015.1 0.0
15/09:30am 20.2 15.0 7.2 43 6.6 SSW 24 37 13 20 1015.4 1015.1 0.0
15/09:00am 19.1 14.8 6.9 45 6.1 SW 19 28 10 15 1015.4 1015.1 0.2
15/08:30am 18.6 14.8 7.7 49 5.6 SW 17 28 9 15 1015.5 1015.2 0.2
15/08:00am 17.4 13.6 7.5 52 5.0 WSW 17 28 9 15 1015.1 1014.8 0.2
15/07:30am 16.4 14.2 7.9 57 4.3 WSW 9 17 5 9 1015.0 1014.6 0.2
15/07:00am 15.0 12.4 7.8 62 3.6 WSW 11 17 6 9 1014.6 1014.2 0.2
15/06:30am 14.1 12.0 8.3 68 2.9 WSW 9 13 5 7 1014.2 1013.9 0.2
15/06:00am 13.8 11.8 8.8 72 2.5 WSW 9 13 5 7 1014.0 1013.7 0.2
15/05:30am 14.1 12.2 8.9 71 2.6 WSW 9 13 5 7 1014.0 1013.7 0.2
15/05:00am 15.5 12.7 8.5 63 3.6 SW 13 28 7 15 1013.8 1013.5 0.2
15/04:30am 16.0 12.6 9.0 63 3.6 SW 17 28 9 15 1013.5 1013.2 0.2
15/04:00am 16.3 12.6 9.3 63 3.6 SSW 19 32 10 17 1013.3 1013.0 0.2
15/03:30am 16.4 13.1 9.6 64 3.6 SSW 17 28 9 15 1013.5 1013.2 0.2
15/03:00am 16.3 13.4 9.5 64 3.5 SSW 15 28 8 15 1013.7 1013.4 0.2
15/02:30am 16.5 13.7 9.9 65 3.5 SSW 15 26 8 14 1013.9 1013.6 0.2
15/02:00am 16.8 13.7 10.4 66 3.4 SSW 17 30 9 16 1014.1 1013.8 0.2
15/01:30am 16.5 14.4 9.9 65 3.5 SSW 11 19 6 10 1014.4 1014.0 0.2
15/01:00am 16.9 13.8 10.3 65 3.5 SSW 17 33 9 18 1014.6 1014.2 0.2
15/12:30am 17.3 13.9 10.7 65 3.5 S 19 28 10 15 1014.8 1014.4 0.2
15/12:00am 17.3 13.9 10.4 64 3.7 S 19 30 10 16 1014.9 1014.5 0.2
 
Date/Time
EDT
Temp
°C
App
Temp
°C
Dew
Point
°C
Rel
Hum
%
Delta-T
°C
Wind Press
QNH
hPa
Press
MSL
hPa
Rain since
9am
mm
Dir  Spd
km/h
Gust
km/h
Spd
kts
Gust
kts
14/11:30pm 17.2 13.7 10.3 64 3.7 SSW 19 30 10 16 1015.1 1014.8 0.2
14/11:00pm 17.2 14.7 11.0 67 3.3 SSW 15 24 8 13 1015.0 1014.6 0.2
14/10:30pm 17.4 14.6 11.2 67 3.4 SSW 17 26 9 14 1015.0 1014.6 0.2
14/10:00pm 17.3 14.6 11.6 69 3.1 SSW 17 26 9 14 1014.8 1014.4 0.2
14/09:30pm 17.0 14.8 12.1 73 2.7 SSW 15 26 8 14 1014.6 1014.2 0.2
14/09:00pm 17.3 14.3 12.0 71 2.9 SSW 19 37 10 20 1014.4 1014.0 0.2
14/08:30pm 17.7 14.2 10.8 64 3.7 S 20 37 11 20 1014.0 1013.7 0.2
14/08:00pm 18.1 14.6 11.0 63 3.9 S 20 35 11 19 1013.8 1013.5 0.2
14/07:30pm 19.3 15.1 11.1 59 4.5 SSW 24 35 13 19 1013.5 1013.2 0.2
14/07:00pm 19.8 15.1 10.8 56 4.9 S 26 39 14 21 1012.7 1012.4 0.2
14/06:30pm 20.9 16.3 9.8 49 6.0 SSW 24 39 13 21 1012.3 1012.0 0.2
14/06:00pm 20.5 14.9 8.8 47 6.2 S 28 46 15 25 1012.0 1011.7 0.2
14/05:30pm 21.4 15.3 9.6 47 6.4 SSW 32 54 17 29 1011.5 1011.2 0.2
14/05:00pm 20.8 14.0 9.4 48 6.1 SSW 35 57 19 31 1011.6 1011.3 0.2
14/04:31pm 21.4 15.5 9.0 45 6.6 S 30 48 16 26 1011.0 1010.7 0.2
14/04:30pm 21.6 15.7 9.2 45 6.6 S 30 44 16 24 1011.0 1010.7 0.2
14/04:13pm 22.8 17.0 9.6 43 7.2 SSW 30 48 16 26 1010.8 1010.5 0.2
14/04:00pm 22.4 16.7 8.5 41 7.4 S 28 41 15 22 1010.7 1010.4 0.2
14/03:32pm 23.4 17.5 7.5 36 8.3 SSW 28 46 15 25 1010.4 1010.1 0.2
14/03:30pm 23.8 18.1 8.2 37 8.3 S 28 44 15 24 1010.4 1010.1 0.2
14/03:00pm 23.0 16.8 9.4 42 7.4 S 32 44 17 24 1010.4 1010.1 0.2
14/02:30pm 22.3 14.8 6.5 36 8.1 S 35 57 19 31 1010.2 1009.9 0.2
14/02:22pm 23.3 16.8 6.6 34 8.6 SSW 30 56 16 30 1010.2 1009.9 0.2
14/02:20pm 22.9 17.1 6.2 34 8.5 SSW 26 50 14 27 1010.3 1010.0 0.2
14/02:02pm 22.3 17.0 6.9 37 7.9 SSW 24 46 13 25 1010.1 1009.8 0.2
14/02:00pm 22.9 18.1 7.4 37 8.1 SSW 22 33 12 18 1010.1 1009.8 0.2
14/01:59pm 22.8 17.6 7.4 37 8.0 SSW 24 43 13 23 1010.0 1009.7 0.2
14/01:30pm 23.0 15.3 7.1 36 8.3 S 37 56 20 30 1009.9 1009.6 0.2
14/01:04pm 22.1 15.6 6.7 37 7.9 S 30 50 16 27 1009.9 1009.6 0.2
14/01:00pm 22.6 17.2 8.0 39 7.7 S 26 39 14 21 1010.0 1009.7 0.2
14/12:37pm 22.1 16.0 6.7 37 7.9 SSW 28 46 15 25 1009.8 1009.5 0.2
14/12:30pm 22.4 15.5 6.6 36 8.1 S 32 46 17 25 1009.8 1009.5 0.2
14/12:03pm 20.6 13.1 6.2 39 7.2 S 35 54 19 29 1009.7 1009.4 0.2
14/12:00pm 20.6 13.5 6.2 39 7.3 S 33 48 18 26 1009.8 1009.5 0.2
14/11:30am 22.3 15.8 6.5 36 8.1 S 30 46 16 25 1009.0 1008.7 0.0
14/11:00am 21.2 15.2 7.1 40 7.3 SSW 28 52 15 28 1008.7 1008.4 0.0
14/10:32am 20.5 13.9 6.1 39 7.2 SW 30 48 16 26 1008.4 1008.1 0.0
14/10:30am 20.6 13.6 6.2 39 7.2 SW 32 48 17 26 1008.4 1008.1 0.0
14/10:03am 19.7 13.7 7.1 44 6.4 SSW 28 46 15 25 1008.2 1007.9 0.0
14/10:00am 19.4 13.7 6.8 44 6.4 SSW 26 41 14 22 1008.1 1007.8 0.0
14/09:30am 18.9 13.7 7.4 47 5.9 SSW 24 39 13 21 1007.9 1007.6 0.0
14/09:00am 16.9 12.7 8.1 56 4.5 SW 20 33 11 18 1007.6 1007.3 1.6
14/08:30am 16.2 12.3 8.7 61 3.8 SW 19 32 10 17 1007.5 1007.2 1.6
14/08:00am 15.5 11.9 9.8 69 3.0 SW 19 26 10 14 1007.2 1006.9 1.6
14/07:30am 14.2 11.5 10.2 77 2.1 WSW 15 22 8 12 1006.7 1006.4 1.6
14/07:00am 13.5 11.5 11.6 88 1.0 WSW 13 19 7 10 1006.0 1005.7 1.6
14/06:30am 13.2 11.1 11.3 88 1.0 WSW 13 17 7 9 1005.2 1004.9 1.6
14/06:00am 13.2 10.8 11.3 88 1.0 SSW 15 24 8 13 1004.7 1004.4 1.6
14/05:59am 13.2 10.8 11.3 88 1.0 SSW 15 24 8 13 1004.7 1004.4 1.6
14/05:38am 14.3 9.2 10.5 78 2.0 S 28 46 15 25 1004.8 1004.5 0.8
14/05:37am 15.2 10.2 10.8 75 2.3 S 28 46 15 25 1004.8 1004.5 0.0
14/05:30am 15.6 12.1 11.0 74 2.5 S 20 39 11 21 1004.4 1004.1 0.0
14/05:00am 16.2 13.2 12.6 79 2.0 S 20 32 11 17 1003.7 1003.4 0.0
14/04:30am 16.7 13.7 13.6 82 1.8 S 22 30 12 16 1003.4 1003.1 0.0

Latest Capital City Observations: Canberra | Sydney | Melbourne | Brisbane | Adelaide | Perth | Hobart | Darwin

Other Formats:

Comma delimited format used in spreadsheet applications
http://www.bom.gov.au/fwo/IDN60901/IDN60901.95761.axf

JavaScript Object Notation format (JSON) in row-major order
http://www.bom.gov.au/fwo/IDN60901/IDN60901.95761.json